METAR Data
IDs: Format: Raw Decoded Include TAF

Data at: 0056 UTC 05 Jul 2022

METAR for:KS52 (Methow Valley State, WA, US)
Text:KS52 050035Z AUTO 15011KT 10SM SCT046 BKN060 OVC075 18/11 A2992 RMK AO2 T01770105
Temperature: 17.7°C ( 64°F)
Dewpoint: 10.5°C ( 51°F) [RH = 63%]
Pressure (altimeter):29.92 inches Hg (1013.3 mb)
Winds:from the SSE (150 degrees) at 13 MPH (11 knots; 5.7 m/s)
Visibility:10 or more sm (16+ km)
Ceiling:6000 feet AGL
Clouds: scattered clouds at 4600 feet AGL, broken clouds at 6000 feet AGL, overcast cloud deck at 7500 feet AGL
QC Flag:automated observation with no human augmentation